createdAt,value
2022-11-12T00:02:48.026Z,69.53
2022-11-12T00:07:49.700Z,69.90
2022-11-12T00:12:51.725Z,69.71
2022-11-12T00:17:53.657Z,69.99
2022-11-12T00:22:55.496Z,70.32
2022-11-12T00:28:08.357Z,70.06
2022-11-12T00:33:10.034Z,70.66
2022-11-12T00:38:11.659Z,69.94
2022-11-12T00:43:13.270Z,69.70
2022-11-12T00:48:14.894Z,69.85
2022-11-12T00:53:16.498Z,69.89
2022-11-12T00:58:18.134Z,69.88
2022-11-12T01:03:19.889Z,69.75
2022-11-12T01:08:21.523Z,69.75
2022-11-12T01:13:23.166Z,69.91
2022-11-12T01:18:25.055Z,69.88
2022-11-12T01:23:27.005Z,69.45
2022-11-12T01:28:29.237Z,70.15
2022-11-12T01:33:31.027Z,70.00
2022-11-12T01:38:40.958Z,69.46
2022-11-12T01:43:42.954Z,69.48
2022-11-12T01:48:53.495Z,69.35
2022-11-12T01:53:58.997Z,69.51
2022-11-12T01:59:09.262Z,69.40
2022-11-12T02:04:11.557Z,69.41
2022-11-12T02:09:14.106Z,69.22
2022-11-12T02:14:15.901Z,69.10
2022-11-12T02:19:18.529Z,68.94
2022-11-12T02:24:20.095Z,68.95
2022-11-12T02:29:22.784Z,68.77
2022-11-12T02:34:24.403Z,68.95
2022-11-12T02:39:26.108Z,69.40
2022-11-12T02:44:28.300Z,69.35
2022-11-12T02:49:29.911Z,69.45
2022-11-12T02:54:31.516Z,69.33
2022-11-12T02:59:33.149Z,69.47
2022-11-12T03:04:34.833Z,69.73
2022-11-12T03:09:36.520Z,69.56
2022-11-12T03:14:38.194Z,69.60
2022-11-12T03:19:39.805Z,69.28
2022-11-12T03:24:41.424Z,69.25
2022-11-12T03:29:43.077Z,69.82
2022-11-12T03:34:44.723Z,69.44
2022-11-12T03:39:46.341Z,69.74
2022-11-12T03:44:47.976Z,69.26
2022-11-12T03:49:49.614Z,68.85
2022-11-12T03:54:51.320Z,69.05
2022-11-12T03:59:52.998Z,69.36
2022-11-12T04:05:13.574Z,69.47
2022-11-12T04:10:15.321Z,69.41
2022-11-12T04:15:16.963Z,69.59
2022-11-12T04:20:37.165Z,69.49
2022-11-12T04:25:58.585Z,69.85
2022-11-12T04:31:00.192Z,69.47
2022-11-12T04:36:01.995Z,69.62
2022-11-12T04:41:22.091Z,69.73
2022-11-12T04:46:23.796Z,69.77
2022-11-12T04:51:43.947Z,69.89
2022-11-12T04:56:45.557Z,69.83
2022-11-12T05:01:47.165Z,70.11
2022-11-12T05:06:51.575Z,69.77
2022-11-12T05:11:55.446Z,69.85
2022-11-12T05:16:57.229Z,70.17
2022-11-12T05:22:17.364Z,70.23
2022-11-12T05:27:23.826Z,69.90
2022-11-12T05:32:25.657Z,70.54
2022-11-12T05:37:27.382Z,70.15
2022-11-12T05:42:29.040Z,70.17
2022-11-12T05:47:30.661Z,69.92
2022-11-12T05:52:32.256Z,69.68
2022-11-12T05:57:33.887Z,69.91
2022-11-12T06:02:35.533Z,69.98
2022-11-12T06:07:37.177Z,69.63
2022-11-12T06:12:38.802Z,69.88
2022-11-12T06:17:40.437Z,69.49
2022-11-12T06:22:42.039Z,70.01
2022-11-12T06:27:43.666Z,69.93
2022-11-12T06:32:49.068Z,69.92
2022-11-12T06:37:50.751Z,69.82
2022-11-12T06:42:57.204Z,70.13
2022-11-12T06:47:59.339Z,69.97
2022-11-12T06:53:00.989Z,70.09
2022-11-12T06:58:02.596Z,70.24
2022-11-12T07:03:08.337Z,70.09
2022-11-12T07:08:10.221Z,69.79
2022-11-12T07:13:12.548Z,69.83
2022-11-12T07:18:14.176Z,69.36
2022-11-12T07:23:15.790Z,69.70
2022-11-12T07:28:17.505Z,69.67
2022-11-12T07:33:19.122Z,69.93
2022-11-12T07:38:20.741Z,70.27
2022-11-12T07:43:22.388Z,69.87
2022-11-12T07:48:24.144Z,69.29
2022-11-12T07:53:26.091Z,69.55
2022-11-12T07:58:30.269Z,69.76
2022-11-12T08:03:31.979Z,69.58
2022-11-12T08:08:33.677Z,69.10
2022-11-12T08:13:35.365Z,69.53
2022-11-12T08:18:37.059Z,69.87
2022-11-12T08:23:38.953Z,69.31
2022-11-12T08:28:40.685Z,69.53
2022-11-12T08:33:43.261Z,69.49
2022-11-12T08:38:45.409Z,69.34
2022-11-12T08:43:47.004Z,69.32
2022-11-12T08:48:48.644Z,69.35
2022-11-12T08:53:50.331Z,69.55
2022-11-12T08:58:51.954Z,69.54
2022-11-12T09:03:53.664Z,68.94
2022-11-12T09:08:55.380Z,69.02
2022-11-12T09:13:57.112Z,68.99
2022-11-12T09:18:58.951Z,68.71
2022-11-12T09:24:00.884Z,68.62
2022-11-12T09:29:02.507Z,68.27
2022-11-12T09:34:04.730Z,68.12
2022-11-12T09:39:06.631Z,67.89
2022-11-12T09:44:20.921Z,67.53
2022-11-12T09:49:38.498Z,67.73
2022-11-12T09:54:42.509Z,67.11
2022-11-12T09:59:44.312Z,67.21
2022-11-12T10:05:13.213Z,65.73
2022-11-12T10:10:33.867Z,67.32
2022-11-12T10:16:12.442Z,67.95
2022-11-12T10:21:45.817Z,68.70
2022-11-12T10:26:49.269Z,68.79
2022-11-12T10:31:51.055Z,68.18
2022-11-12T10:37:06.512Z,68.51
2022-11-12T10:42:14.829Z,68.75
2022-11-12T10:47:38.775Z,68.99
2022-11-12T10:52:52.455Z,68.80
2022-11-12T10:58:19.599Z,67.96
2022-11-12T11:03:26.967Z,68.07
2022-11-12T11:08:36.918Z,67.98
2022-11-12T11:13:38.852Z,68.08
2022-11-12T11:18:43.632Z,67.98
2022-11-12T11:23:50.930Z,67.70
2022-11-12T11:29:07.975Z,68.01
2022-11-12T11:34:34.326Z,67.79
2022-11-12T11:39:48.903Z,67.46
2022-11-12T11:45:07.888Z,67.63
2022-11-12T11:50:21.722Z,67.21
2022-11-12T11:55:49.686Z,66.58
2022-11-12T12:01:14.780Z,67.48
2022-11-12T12:06:28.760Z,68.23
2022-11-12T12:11:55.398Z,68.30
2022-11-12T12:17:22.273Z,68.26
2022-11-12T12:22:47.169Z,68.12
2022-11-12T12:27:57.179Z,67.88
2022-11-12T12:33:20.150Z,66.98
2022-11-12T12:38:42.876Z,66.57
2022-11-12T12:44:03.453Z,67.61
2022-11-12T12:49:07.421Z,68.53
2022-11-12T12:54:46.649Z,68.49
2022-11-12T12:59:48.370Z,68.29
2022-11-12T13:04:56.305Z,67.73
2022-11-12T13:10:36.311Z,67.45
2022-11-12T13:15:49.651Z,67.42
2022-11-12T13:21:12.851Z,67.03
2022-11-12T13:26:39.413Z,67.57
2022-11-12T13:31:41.176Z,67.44
2022-11-12T13:36:58.340Z,68.19
2022-11-12T13:42:19.738Z,67.69
2022-11-12T13:47:22.522Z,68.35
2022-11-12T13:52:24.796Z,67.76
2022-11-12T13:57:30.228Z,67.89
2022-11-12T14:02:35.933Z,67.98
2022-11-12T14:07:59.335Z,68.09
2022-11-12T14:13:27.113Z,68.24
2022-11-12T14:18:37.714Z,68.42
2022-11-12T14:23:39.420Z,68.53
2022-11-12T14:28:41.407Z,68.08
2022-11-12T14:33:43.021Z,67.82
2022-11-12T14:39:02.781Z,68.12
2022-11-12T14:44:13.010Z,67.88
2022-11-12T14:49:20.776Z,68.29
2022-11-12T14:54:36.059Z,68.25
2022-11-12T14:59:37.943Z,68.31
2022-11-12T15:05:01.666Z,68.57
2022-11-12T15:10:28.862Z,68.71
2022-11-12T15:15:32.590Z,68.40
2022-11-12T15:20:34.319Z,68.63
2022-11-12T15:25:35.987Z,68.82
2022-11-12T15:30:38.071Z,68.66
2022-11-12T15:35:47.172Z,68.89
2022-11-12T15:40:57.466Z,68.86
2022-11-12T15:45:59.754Z,69.05
2022-11-12T15:51:01.365Z,69.11
2022-11-12T15:56:04.229Z,69.05
2022-11-12T16:01:06.464Z,68.88
2022-11-12T16:06:12.136Z,69.07
2022-11-12T16:11:32.419Z,69.21
2022-11-12T16:16:34.995Z,69.33
2022-11-12T16:21:36.615Z,69.19
2022-11-12T16:26:38.505Z,69.28
2022-11-12T16:31:44.585Z,69.53
2022-11-12T16:36:47.456Z,69.28
2022-11-12T16:41:49.452Z,69.78
2022-11-12T16:46:51.251Z,69.77
2022-11-12T16:51:52.920Z,69.85
2022-11-12T16:56:54.611Z,69.95
2022-11-12T17:01:57.265Z,69.99
2022-11-12T17:06:58.935Z,70.18
2022-11-12T17:12:00.637Z,70.42
2022-11-12T17:17:02.285Z,70.58
2022-11-12T17:22:03.926Z,70.76
2022-11-12T17:27:05.600Z,70.77
2022-11-12T17:32:07.342Z,70.63
2022-11-12T17:37:08.987Z,70.92
2022-11-12T17:42:10.710Z,70.73
2022-11-12T17:47:13.099Z,70.89
2022-11-12T17:52:14.761Z,70.91
2022-11-12T17:57:19.308Z,70.49
2022-11-12T18:02:20.927Z,70.75
2022-11-12T18:07:23.250Z,70.86
2022-11-12T18:12:25.174Z,70.74
2022-11-12T18:17:26.846Z,70.99
2022-11-12T18:22:28.494Z,70.88
2022-11-12T18:27:30.602Z,71.01
2022-11-12T18:32:34.288Z,71.33
2022-11-12T18:37:36.600Z,71.31
2022-11-12T18:42:38.216Z,71.44
2022-11-12T18:47:40.283Z,72.01
2022-11-12T18:52:42.360Z,71.80
2022-11-12T18:57:43.968Z,71.56
2022-11-12T19:02:45.631Z,71.46
2022-11-12T19:07:47.581Z,71.21
2022-11-12T19:12:50.116Z,71.15
2022-11-12T19:17:51.842Z,71.22
2022-11-12T19:22:54.233Z,71.35
2022-11-12T19:27:55.861Z,71.46
2022-11-12T19:32:57.624Z,71.68
2022-11-12T19:37:59.264Z,71.41
2022-11-12T19:43:00.883Z,71.65
2022-11-12T19:48:03.381Z,71.73
2022-11-12T19:53:05.063Z,71.88
2022-11-12T19:58:07.213Z,71.93
2022-11-12T20:03:08.907Z,71.43
2022-11-12T20:08:10.920Z,71.26
2022-11-12T20:13:12.616Z,70.94
2022-11-12T20:18:15.421Z,70.91
2022-11-12T20:23:17.406Z,70.89
2022-11-12T20:28:19.318Z,70.78
2022-11-12T20:33:20.935Z,70.67
2022-11-12T20:38:22.551Z,70.81
2022-11-12T20:43:28.935Z,70.66
2022-11-12T20:48:31.797Z,70.66
2022-11-12T20:53:34.156Z,70.58
2022-11-12T20:58:36.357Z,70.50
2022-11-12T21:03:39.767Z,70.78
2022-11-12T21:08:42.231Z,70.97
2022-11-12T21:13:43.938Z,71.08
2022-11-12T21:18:45.596Z,71.10
2022-11-12T21:23:50.316Z,71.23
2022-11-12T21:28:54.469Z,71.12
2022-11-12T21:33:58.714Z,70.94
2022-11-12T21:39:00.449Z,71.22
2022-11-12T21:44:02.097Z,71.44
2022-11-12T21:49:04.413Z,71.25
2022-11-12T21:54:07.658Z,71.04
2022-11-12T21:59:09.310Z,71.14
2022-11-12T22:04:15.490Z,71.05
2022-11-12T22:09:19.688Z,70.70
2022-11-12T22:14:21.352Z,71.08
2022-11-12T22:19:23.765Z,70.88
2022-11-12T22:24:25.393Z,71.15
2022-11-12T22:29:27.006Z,71.75
2022-11-12T22:34:28.641Z,71.51
2022-11-12T22:39:30.264Z,71.16
2022-11-12T22:44:31.940Z,70.98
2022-11-12T22:49:33.570Z,71.15
2022-11-12T22:54:35.223Z,71.35
2022-11-12T22:59:36.872Z,71.04
2022-11-12T23:04:38.559Z,70.87
2022-11-12T23:09:40.189Z,71.02
2022-11-12T23:14:41.806Z,71.04
2022-11-12T23:19:43.520Z,71.26
2022-11-12T23:24:45.266Z,70.97
2022-11-12T23:29:46.860Z,70.82
2022-11-12T23:34:48.505Z,70.63
2022-11-12T23:39:50.155Z,70.45
2022-11-12T23:44:51.939Z,70.44
2022-11-12T23:49:53.560Z,70.12
2022-11-12T23:54:55.219Z,70.34
2022-11-12T23:59:56.928Z,70.52
